Home   Weather   Greece   Nea Smyrni   Past weeks
Flag for Greece

Past Weather in Nea Smyrni, Greece — Yesterday and Last 2 Weeks

Currently: 72 °F. Clear. (Weather station: Eleftherios Venizelos International Airport, Greece). See more current weather

Past Weather in Nea Smyrni — Graph

°F

Nea Smyrni Temperature Yesterday

Maximum temperature yesterday: 95 °F (at 2:50 pm)
Minimum temperature yesterday: 79 °F (at 11:50 pm)
Average temperature yesterday: 88 °F

High & Low Weather Summary for the Past Weeks

 TemperatureHumidityPressure
High100 °F (Jul 18, 3:20 pm)61% (Jul 21, 4:20 am)29.95 "Hg (Jul 21, 4:20 am)
Low72 °F (Jul 21, 4:20 am)14% (Jul 15, 3:20 pm)29.71 "Hg (Jul 20, 6:20 pm)
Average88 °F31%29.83 "Hg
* Reported Jul 6 5:20 am — Jul 21 5:20 am, Nea Smyrni. Weather by CustomWeather, © 2024

Note: Actual official high and low records may vary slightly from our data, if they occured in-between our weather recording intervals... More about our weather records

Nea Smyrni Weather History for the Previous 24 Hours

Scroll right to see more
 ConditionsComfort  
Time TempWeatherWind HumidityBarometerVisibility
5:20 am
Sun, Jul 21
72 °FClear.1 mph61%29.74 "Hg10 mi
4:50 am73 °FClear.No wind57%29.74 "Hg10 mi
4:20 am72 °FClear.No wind61%29.74 "Hg10 mi
3:50 am75 °FClear.2 mph54%29.74 "Hg10 mi
3:20 am73 °FClear.2 mph57%29.74 "Hg10 mi
2:50 am77 °FClear.2 mph44%29.74 "Hg10 mi
2:20 am75 °FClear.3 mph50%29.74 "Hg10 mi
1:50 am77 °FClear.2 mph47%29.77 "Hg10 mi
1:20 am75 °FClear.5 mph50%29.77 "Hg10 mi
12:50 am79 °FClear.5 mph48%29.77 "Hg10 mi
12:20 am77 °FClear.3 mph54%29.77 "Hg10 mi
11:50 pm
Sat, Jul 20
79 °FClear.3 mph51%29.77 "Hg10 mi
10:20 pm82 °FClear.3 mph45%29.77 "Hg10 mi
9:50 pm82 °FClear.1 mph48%29.77 "Hg10 mi
9:20 pm84 °FClear.No wind45%29.74 "Hg10 mi
8:50 pm86 °FClear.10 mph43%29.74 "Hg10 mi
8:20 pm86 °FSunny.14 mph40%29.74 "Hg10 mi
7:50 pm86 °FSunny.18 mph43%29.74 "Hg10 mi
7:20 pm88 °FSunny.21 mph40%29.74 "Hg10 mi
6:50 pm88 °FSunny.21 mph38%29.71 "Hg10 mi
6:20 pm90 °FSunny.22 mph36%29.71 "Hg10 mi
5:50 pm90 °FSunny.23 mph36%29.74 "Hg10 mi
5:20 pm91 °FSunny.17 mph34%29.74 "Hg10 mi
4:50 pm93 °FPassing clouds.18 mph34%29.74 "HgN/A
4:20 pm93 °FPassing clouds.17 mph32%29.74 "HgN/A
3:50 pm93 °FPassing clouds.17 mph32%29.74 "HgN/A
3:20 pm93 °FPassing clouds.16 mph32%29.77 "HgN/A
2:50 pm95 °FPassing clouds.15 mph28%29.77 "HgN/A
2:20 pm91 °FSunny.22 mph38%29.77 "Hg10 mi
1:50 pm91 °FSunny.23 mph38%29.77 "Hg10 mi
1:20 pm91 °FSunny.22 mph36%29.77 "Hg10 mi
12:50 pm93 °FSunny.22 mph32%29.77 "Hg10 mi
12:20 pm91 °FSunny.20 mph36%29.77 "Hg10 mi
11:20 am91 °FSunny.22 mph34%29.77 "Hg10 mi
10:20 am90 °FSunny.20 mph36%29.77 "Hg10 mi
9:50 am90 °FSunny.18 mph36%29.77 "Hg10 mi
9:20 am88 °FSunny.22 mph38%29.77 "Hg10 mi
8:50 am88 °FSunny.21 mph38%29.77 "Hg10 mi
8:20 am88 °FSunny.17 mph38%29.77 "Hg10 mi
7:50 am86 °FSunny.15 mph38%29.77 "Hg10 mi
7:20 am84 °FSunny.15 mph43%29.77 "Hg10 mi
6:50 am84 °FSunny.9 mph43%29.77 "Hg10 mi
6:20 am82 °FSunny.13 mph45%29.77 "Hg10 mi
Weather by CustomWeather, © 2024

See weather overview